createdAt,value
2022-12-26T00:00:36.375Z,5.06
2022-12-26T00:03:45.612Z,5.06
2022-12-26T00:06:52.183Z,5.12
2022-12-26T00:09:59.191Z,5.09
2022-12-26T00:13:39.789Z,5.08
2022-12-26T00:16:32.642Z,5.08
2022-12-26T00:19:41.167Z,5.09
2022-12-26T00:22:47.555Z,5.02
2022-12-26T00:25:53.385Z,5.00
2022-12-26T00:29:00.732Z,5.01
2022-12-26T00:32:06.861Z,4.92
2022-12-26T00:35:15.995Z,4.82
2022-12-26T00:38:21.783Z,4.78
2022-12-26T00:41:28.744Z,4.74
2022-12-26T00:44:34.425Z,4.68
2022-12-26T00:47:40.912Z,4.64
2022-12-26T00:50:49.297Z,4.79
2022-12-26T00:53:55.843Z,4.85
2022-12-26T00:57:01.471Z,4.95
2022-12-26T01:00:10.979Z,5.09
2022-12-26T01:03:17.042Z,5.34
2022-12-26T01:06:27.973Z,5.65
2022-12-26T01:09:33.668Z,5.82
2022-12-26T01:12:40.592Z,5.96
2022-12-26T01:15:52.862Z,6.10
2022-12-26T01:18:59.314Z,6.12
2022-12-26T01:22:08.117Z,6.29
2022-12-26T01:25:15.870Z,6.43
2022-12-26T01:28:21.615Z,6.46
2022-12-26T01:31:29.209Z,6.43
2022-12-26T01:34:35.844Z,6.41
2022-12-26T01:37:45.015Z,6.43
2022-12-26T01:41:12.301Z,6.43
2022-12-26T01:44:59.652Z,6.40
2022-12-26T01:48:15.957Z,6.39
2022-12-26T01:51:27.034Z,6.34
2022-12-26T01:54:42.993Z,6.35
2022-12-26T01:57:59.619Z,6.27
2022-12-26T02:01:11.060Z,6.10
2022-12-26T02:04:37.861Z,5.96
2022-12-26T02:07:49.387Z,5.86
2022-12-26T02:11:11.114Z,5.78
2022-12-26T02:14:18.038Z,5.57
2022-12-26T02:17:24.616Z,5.27
2022-12-26T02:20:43.919Z,5.08
2022-12-26T02:24:29.977Z,5.10
2022-12-26T02:28:30.756Z,5.25
2022-12-26T02:31:56.504Z,5.44
2022-12-26T02:35:24.715Z,5.60
2022-12-26T02:38:50.518Z,5.78
2022-12-26T02:42:17.910Z,5.92
2022-12-26T02:45:49.801Z,6.07
2022-12-26T02:49:16.312Z,6.17
2022-12-26T02:52:51.632Z,6.15
2022-12-26T02:56:25.841Z,6.09
2022-12-26T03:00:01.763Z,6.19
2022-12-26T03:03:29.981Z,6.10
2022-12-26T03:06:56.972Z,5.87
2022-12-26T03:10:24.904Z,5.71
2022-12-26T03:13:39.693Z,5.53
2022-12-26T03:17:09.593Z,5.42
2022-12-26T03:20:21.326Z,5.41
2022-12-26T03:23:34.954Z,5.48
2022-12-26T03:26:53.007Z,5.46
2022-12-26T03:30:14.936Z,5.28
2022-12-26T03:33:35.542Z,5.26
2022-12-26T03:37:04.625Z,5.27
2022-12-26T03:40:58.823Z,5.44
2022-12-26T03:44:45.087Z,5.52
2022-12-26T03:48:21.151Z,5.66
2022-12-26T03:51:54.316Z,5.70
2022-12-26T03:55:25.165Z,5.64
2022-12-26T03:58:58.741Z,5.61
2022-12-26T04:02:25.692Z,5.68
2022-12-26T04:05:48.601Z,5.73
2022-12-26T04:09:17.302Z,5.81
2022-12-26T04:12:45.148Z,5.91
2022-12-26T04:16:15.301Z,5.91
2022-12-26T04:19:58.915Z,5.94
2022-12-26T04:23:29.108Z,5.79
2022-12-26T04:26:55.981Z,5.84
2022-12-26T04:30:14.229Z,5.82
2022-12-26T04:33:50.333Z,5.93
2022-12-26T04:37:17.617Z,6.06
2022-12-26T04:40:47.236Z,6.05
2022-12-26T04:44:12.093Z,6.05
2022-12-26T04:47:18.920Z,6.12
2022-12-26T04:50:24.502Z,6.15
2022-12-26T04:53:31.240Z,6.17
2022-12-26T04:56:37.580Z,6.23
2022-12-26T04:59:44.156Z,6.39
2022-12-26T05:03:02.317Z,6.49
2022-12-26T05:06:25.623Z,6.56
2022-12-26T05:09:37.561Z,6.69
2022-12-26T05:12:44.208Z,6.79
2022-12-26T05:16:02.340Z,6.92
2022-12-26T05:19:24.420Z,7.00
2022-12-26T05:22:50.171Z,7.03
2022-12-26T05:26:08.982Z,7.05
2022-12-26T05:29:14.665Z,7.06
2022-12-26T05:32:33.539Z,7.09
2022-12-26T05:35:40.103Z,7.15
2022-12-26T05:38:50.160Z,7.16
2022-12-26T05:41:55.733Z,7.19
2022-12-26T05:45:02.146Z,7.23
2022-12-26T05:48:08.577Z,7.27
2022-12-26T05:51:15.198Z,7.22
2022-12-26T05:54:23.443Z,7.25
2022-12-26T05:57:29.956Z,7.26
2022-12-26T06:00:35.684Z,7.25
2022-12-26T06:03:44.364Z,7.25
2022-12-26T06:06:50.546Z,7.28
2022-12-26T06:09:59.595Z,7.28
2022-12-26T06:13:05.332Z,7.34
2022-12-26T06:16:14.979Z,7.37
2022-12-26T06:19:20.858Z,7.44
2022-12-26T06:22:27.402Z,7.43
2022-12-26T06:25:35.628Z,7.47
2022-12-26T06:28:44.142Z,7.41
2022-12-26T06:31:50.518Z,7.42
2022-12-26T06:34:56.987Z,7.39
2022-12-26T06:38:02.636Z,7.42
2022-12-26T06:41:19.389Z,7.43
2022-12-26T06:44:25.271Z,7.43
2022-12-26T06:47:32.526Z,7.51
2022-12-26T06:50:39.945Z,7.56
2022-12-26T06:53:46.782Z,7.60
2022-12-26T06:56:54.960Z,7.66
2022-12-26T07:00:01.587Z,7.69
2022-12-26T07:03:07.559Z,7.78
2022-12-26T07:06:23.644Z,7.88
2022-12-26T07:09:33.695Z,7.89
2022-12-26T07:12:42.970Z,7.88
2022-12-26T07:15:48.645Z,7.94
2022-12-26T07:18:56.867Z,7.91
2022-12-26T07:22:02.475Z,7.93
2022-12-26T07:25:11.275Z,7.95
2022-12-26T07:28:19.532Z,8.00
2022-12-26T07:31:29.183Z,8.00
2022-12-26T07:34:34.976Z,8.21
2022-12-26T07:37:41.668Z,8.24
2022-12-26T07:40:48.595Z,8.31
2022-12-26T07:43:58.396Z,8.34
2022-12-26T07:47:04.736Z,8.26
2022-12-26T07:50:12.692Z,8.23
2022-12-26T07:53:18.840Z,8.27
2022-12-26T07:56:25.806Z,8.25
2022-12-26T07:59:34.197Z,8.12
2022-12-26T08:02:43.901Z,8.12
2022-12-26T08:05:54.871Z,8.14
2022-12-26T08:09:01.487Z,8.10
2022-12-26T08:12:10.043Z,8.02
2022-12-26T08:15:19.281Z,7.98
2022-12-26T08:18:27.352Z,7.90
2022-12-26T08:21:34.620Z,7.84
2022-12-26T08:24:44.617Z,7.86
2022-12-26T08:27:52.628Z,7.92
2022-12-26T08:31:01.538Z,7.98
2022-12-26T08:34:10.130Z,7.94
2022-12-26T08:37:18.141Z,7.99
2022-12-26T08:40:41.880Z,8.01
2022-12-26T08:44:25.889Z,8.03
2022-12-26T08:47:26.801Z,8.09
2022-12-26T08:50:40.814Z,8.09
2022-12-26T08:53:52.402Z,8.12
2022-12-26T08:56:58.078Z,8.01
2022-12-26T09:00:04.848Z,7.98
2022-12-26T09:03:13.256Z,8.00
2022-12-26T09:06:19.981Z,7.95
2022-12-26T09:09:25.746Z,7.95
2022-12-26T09:12:32.275Z,7.89
2022-12-26T09:15:37.963Z,7.84
2022-12-26T09:18:48.776Z,7.82
2022-12-26T09:22:17.856Z,7.91
2022-12-26T09:25:29.520Z,7.86
2022-12-26T09:28:35.739Z,7.94
2022-12-26T09:31:43.440Z,7.95
2022-12-26T09:34:52.369Z,7.97
2022-12-26T09:37:58.815Z,8.05
2022-12-26T09:41:39.474Z,8.12
2022-12-26T09:45:01.309Z,8.15
2022-12-26T09:48:19.700Z,8.07
2022-12-26T09:51:34.018Z,8.12
2022-12-26T09:54:59.416Z,8.10
2022-12-26T09:58:22.057Z,8.04
2022-12-26T10:01:43.696Z,7.84
2022-12-26T10:04:52.636Z,7.82
2022-12-26T10:08:17.755Z,7.69
2022-12-26T10:11:44.242Z,7.73
2022-12-26T10:15:06.498Z,7.74
2022-12-26T10:18:40.817Z,7.81
2022-12-26T10:22:02.939Z,7.86
2022-12-26T10:25:28.739Z,7.93
2022-12-26T10:28:48.380Z,7.99
2022-12-26T10:32:04.532Z,8.07
2022-12-26T10:35:30.608Z,8.11
2022-12-26T10:38:44.559Z,8.15
2022-12-26T10:41:59.771Z,8.18
2022-12-26T10:45:20.143Z,8.24
2022-12-26T10:48:32.083Z,8.21
2022-12-26T10:51:40.107Z,8.19
2022-12-26T10:54:50.366Z,8.22
2022-12-26T10:58:27.639Z,8.38
2022-12-26T11:01:39.449Z,8.43
2022-12-26T11:05:18.450Z,8.45
2022-12-26T11:08:43.875Z,8.57
2022-12-26T11:11:55.531Z,8.53
2022-12-26T11:15:20.021Z,8.62
2022-12-26T11:18:40.415Z,8.61
2022-12-26T11:21:46.269Z,8.75
2022-12-26T11:25:23.660Z,8.77
2022-12-26T11:28:35.573Z,8.84
2022-12-26T11:31:57.417Z,8.94
2022-12-26T11:35:03.348Z,9.03
2022-12-26T11:38:38.970Z,9.10
2022-12-26T11:41:50.314Z,9.20
2022-12-26T11:45:04.044Z,9.29
2022-12-26T11:48:27.767Z,9.34
2022-12-26T11:51:43.528Z,9.34
2022-12-26T11:54:53.911Z,9.36
2022-12-26T11:58:06.680Z,9.40
2022-12-26T12:01:20.563Z,9.36
2022-12-26T12:04:34.106Z,9.44
2022-12-26T12:08:26.697Z,9.52
2022-12-26T12:11:52.265Z,9.61
2022-12-26T12:15:14.936Z,9.67
2022-12-26T12:18:41.241Z,9.78
2022-12-26T12:22:16.239Z,9.77
2022-12-26T12:25:43.702Z,9.88
2022-12-26T12:29:26.094Z,9.94
2022-12-26T12:32:58.659Z,9.96
2022-12-26T12:36:14.678Z,10.09
2022-12-26T12:39:48.006Z,10.17
2022-12-26T12:43:13.901Z,10.21
2022-12-26T12:46:40.718Z,10.20
2022-12-26T12:50:11.044Z,10.18
2022-12-26T12:53:41.177Z,10.18
2022-12-26T12:57:05.400Z,10.19
2022-12-26T13:00:21.820Z,10.24
2022-12-26T13:03:40.679Z,10.24
2022-12-26T13:06:57.627Z,10.20
2022-12-26T13:10:16.742Z,10.22
2022-12-26T13:13:38.173Z,10.22
2022-12-26T13:16:53.548Z,10.28
2022-12-26T13:20:08.179Z,10.24
2022-12-26T13:23:41.358Z,10.21
2022-12-26T13:26:58.550Z,10.31
2022-12-26T13:30:20.581Z,10.35
2022-12-26T13:33:28.425Z,10.41
2022-12-26T13:36:47.435Z,10.46
2022-12-26T13:39:56.548Z,10.48
2022-12-26T13:43:32.875Z,10.50
2022-12-26T13:47:00.205Z,10.49
2022-12-26T13:50:55.253Z,10.43
2022-12-26T13:54:16.262Z,10.46
2022-12-26T13:57:40.350Z,10.43
2022-12-26T14:00:53.272Z,10.39
2022-12-26T14:04:39.858Z,10.33
2022-12-26T14:08:01.545Z,10.30
2022-12-26T14:11:39.510Z,10.35
2022-12-26T14:15:10.525Z,10.32
2022-12-26T14:18:38.285Z,10.31
2022-12-26T14:22:03.956Z,10.29
2022-12-26T14:25:28.020Z,10.18
2022-12-26T14:28:59.554Z,10.20
2022-12-26T14:32:31.378Z,10.16
2022-12-26T14:35:50.766Z,10.10
2022-12-26T14:39:15.161Z,10.05
2022-12-26T14:42:39.153Z,9.98
2022-12-26T14:45:51.124Z,9.99
2022-12-26T14:49:02.368Z,9.94
2022-12-26T14:52:43.461Z,9.88
2022-12-26T14:55:56.879Z,9.79
2022-12-26T14:59:33.062Z,9.76
2022-12-26T15:02:47.836Z,9.68
2022-12-26T15:05:54.799Z,9.67
2022-12-26T15:09:31.574Z,9.66
2022-12-26T15:13:35.148Z,9.66
2022-12-26T15:17:07.385Z,9.64
2022-12-26T15:20:53.675Z,9.65
2022-12-26T15:25:21.547Z,9.63
2022-12-26T15:29:10.472Z,9.70
2022-12-26T15:32:38.745Z,9.67
2022-12-26T15:36:02.940Z,9.73
2022-12-26T15:39:30.255Z,9.67
2022-12-26T15:42:59.636Z,9.74
2022-12-26T15:46:21.668Z,9.76
2022-12-26T15:50:00.671Z,9.75
2022-12-26T15:53:29.500Z,9.47
2022-12-26T15:57:05.589Z,9.29
2022-12-26T16:00:23.923Z,9.13
2022-12-26T16:03:52.722Z,9.02
2022-12-26T16:07:20.228Z,8.99
2022-12-26T16:10:37.481Z,8.87
2022-12-26T16:13:58.960Z,8.80
2022-12-26T16:17:25.035Z,8.77
2022-12-26T16:20:48.528Z,8.76
2022-12-26T16:23:59.418Z,8.73
2022-12-26T16:27:12.115Z,8.72
2022-12-26T16:30:28.118Z,8.60
2022-12-26T16:33:42.843Z,8.43
2022-12-26T16:36:53.074Z,8.25
2022-12-26T16:40:27.078Z,8.02
2022-12-26T16:43:36.211Z,7.82
2022-12-26T16:46:42.921Z,7.83
2022-12-26T16:49:48.976Z,7.86
2022-12-26T16:53:14.005Z,7.95
2022-12-26T16:56:36.561Z,8.00
2022-12-26T16:59:58.281Z,8.06
2022-12-26T17:03:10.824Z,8.06
2022-12-26T17:06:27.375Z,8.01
2022-12-26T17:09:44.889Z,8.02
2022-12-26T17:12:57.439Z,7.93
2022-12-26T17:16:13.790Z,8.07
2022-12-26T17:19:24.060Z,8.07
2022-12-26T17:22:36.023Z,8.12
2022-12-26T17:25:48.843Z,8.16
2022-12-26T17:29:01.364Z,8.12
2022-12-26T17:32:11.616Z,8.22
2022-12-26T17:35:26.476Z,8.29
2022-12-26T17:38:34.517Z,8.31
2022-12-26T17:41:46.511Z,8.29
2022-12-26T17:44:56.988Z,8.38
2022-12-26T17:48:02.806Z,8.39
2022-12-26T17:51:17.454Z,8.40
2022-12-26T17:54:23.208Z,8.44
2022-12-26T17:57:32.325Z,8.51
2022-12-26T18:00:40.626Z,8.40
2022-12-26T18:03:47.100Z,8.40
2022-12-26T18:06:52.934Z,8.45
2022-12-26T18:09:59.745Z,8.40
2022-12-26T18:13:06.427Z,8.36
2022-12-26T18:16:25.111Z,8.31
2022-12-26T18:19:31.283Z,8.29
2022-12-26T18:22:38.033Z,8.29
2022-12-26T18:25:43.784Z,8.31
2022-12-26T18:28:54.129Z,8.28
2022-12-26T18:32:02.318Z,8.32
2022-12-26T18:35:10.221Z,8.35
2022-12-26T18:38:18.887Z,8.34
2022-12-26T18:41:25.389Z,8.32
2022-12-26T18:44:30.986Z,8.29
2022-12-26T18:47:40.026Z,8.28
2022-12-26T18:50:47.197Z,8.32
2022-12-26T18:53:54.051Z,8.30
2022-12-26T18:56:59.756Z,8.32
2022-12-26T19:00:11.240Z,8.33
2022-12-26T19:03:19.438Z,8.30
2022-12-26T19:06:29.910Z,8.32
2022-12-26T19:09:35.566Z,8.29
2022-12-26T19:12:42.276Z,8.25
2022-12-26T19:15:50.148Z,8.28
2022-12-26T19:18:59.147Z,8.33
2022-12-26T19:22:04.907Z,8.29
2022-12-26T19:25:12.256Z,8.37
2022-12-26T19:28:17.927Z,8.43
2022-12-26T19:31:27.086Z,8.36
2022-12-26T19:34:36.390Z,8.40
2022-12-26T19:37:43.830Z,8.36
2022-12-26T19:40:49.432Z,8.35
2022-12-26T19:43:59.313Z,8.31
2022-12-26T19:47:12.539Z,8.33
2022-12-26T19:50:22.699Z,8.34
2022-12-26T19:53:28.512Z,8.45
2022-12-26T19:56:39.257Z,8.51
2022-12-26T19:59:44.875Z,8.56
2022-12-26T20:02:52.778Z,8.53
2022-12-26T20:06:03.872Z,8.54
2022-12-26T20:09:14.364Z,8.56
2022-12-26T20:12:20.092Z,8.55
2022-12-26T20:15:26.785Z,8.55
2022-12-26T20:18:32.718Z,8.49
2022-12-26T20:21:44.541Z,8.46
2022-12-26T20:24:51.020Z,8.53
2022-12-26T20:27:57.918Z,8.56
2022-12-26T20:31:11.532Z,8.62
2022-12-26T20:34:22.918Z,8.56
2022-12-26T20:37:32.248Z,8.59
2022-12-26T20:40:39.044Z,8.62
2022-12-26T20:43:45.209Z,8.71
2022-12-26T20:46:51.695Z,8.68
2022-12-26T20:49:57.354Z,8.68
2022-12-26T20:53:08.715Z,8.71
2022-12-26T20:56:16.351Z,8.73
2022-12-26T20:59:23.108Z,8.77
2022-12-26T21:02:28.892Z,8.80
2022-12-26T21:05:35.396Z,8.82
2022-12-26T21:08:47.454Z,8.84
2022-12-26T21:11:53.975Z,8.87
2022-12-26T21:14:59.690Z,8.85
2022-12-26T21:18:07.199Z,8.87
2022-12-26T21:21:16.802Z,8.78
2022-12-26T21:24:29.588Z,8.68
2022-12-26T21:27:35.439Z,8.70
2022-12-26T21:30:47.284Z,8.65
2022-12-26T21:33:58.867Z,8.64
2022-12-26T21:37:18.201Z,8.54
2022-12-26T21:40:27.726Z,8.43
2022-12-26T21:43:34.231Z,8.43
2022-12-26T21:46:39.909Z,8.38
2022-12-26T21:49:46.524Z,8.37
2022-12-26T21:52:52.145Z,8.40
2022-12-26T21:56:08.159Z,8.49
2022-12-26T21:59:29.079Z,8.48
2022-12-26T22:02:51.988Z,8.37
2022-12-26T22:05:58.224Z,8.32
2022-12-26T22:09:06.780Z,8.34
2022-12-26T22:12:27.924Z,8.39
2022-12-26T22:15:47.624Z,8.44
2022-12-26T22:18:53.469Z,8.47
2022-12-26T22:22:00.015Z,8.51
2022-12-26T22:25:05.697Z,8.54
2022-12-26T22:28:20.192Z,8.51
2022-12-26T22:31:32.584Z,8.54
2022-12-26T22:34:43.785Z,8.61
2022-12-26T22:37:50.411Z,8.66
2022-12-26T22:41:02.357Z,8.56
2022-12-26T22:44:11.497Z,8.60
2022-12-26T22:47:18.574Z,8.60
2022-12-26T22:50:26.718Z,8.53
2022-12-26T22:53:34.623Z,8.49
2022-12-26T22:56:40.446Z,8.45
2022-12-26T23:03:16.753Z,8.45
2022-12-26T23:06:27.926Z,8.41
2022-12-26T23:09:34.074Z,8.45
2022-12-26T23:12:47.224Z,8.47
2022-12-26T23:16:12.956Z,8.46
2022-12-26T23:19:41.252Z,8.44
2022-12-26T23:22:47.642Z,8.52
2022-12-26T23:25:54.277Z,8.59
2022-12-26T23:29:12.301Z,8.65
2022-12-26T23:32:21.355Z,8.67
2022-12-26T23:35:28.896Z,8.59
2022-12-26T23:38:38.289Z,8.65
2022-12-26T23:41:43.991Z,8.68
2022-12-26T23:44:50.473Z,8.61
2022-12-26T23:47:58.885Z,8.67
2022-12-26T23:51:06.824Z,8.66
2022-12-26T23:54:15.359Z,8.70
2022-12-26T23:57:21.807Z,8.66
